createdAt,value
2017-07-19T00:02:13.576Z,21.30
2017-07-19T00:04:48.408Z,21.30
2017-07-19T00:07:23.167Z,21.00
2017-07-19T00:09:57.953Z,21.10
2017-07-19T00:12:32.735Z,21.00
2017-07-19T00:15:07.651Z,20.70
2017-07-19T00:17:42.424Z,20.70
2017-07-19T00:20:18.001Z,20.80
2017-07-19T00:22:53.011Z,20.80
2017-07-19T00:25:27.944Z,20.90
2017-07-19T00:28:02.887Z,20.90
2017-07-19T00:30:37.650Z,21.00
2017-07-19T00:33:12.462Z,21.00
2017-07-19T00:35:47.242Z,20.80
2017-07-19T00:38:22.074Z,20.70
2017-07-19T00:40:56.959Z,20.50
2017-07-19T00:43:31.912Z,20.30
2017-07-19T00:46:06.892Z,20.00
2017-07-19T00:48:41.847Z,20.20
2017-07-19T00:51:16.627Z,20.40
2017-07-19T00:53:52.435Z,20.50
2017-07-19T00:56:27.410Z,20.60
2017-07-19T00:59:02.342Z,20.40
2017-07-19T01:01:37.297Z,20.30
2017-07-19T01:04:12.280Z,20.40
2017-07-19T01:06:47.062Z,20.60
2017-07-19T01:09:21.856Z,20.60
2017-07-19T01:11:56.680Z,20.70
2017-07-19T01:14:32.436Z,20.60
2017-07-19T01:17:07.340Z,20.70
2017-07-19T01:19:42.211Z,20.70
2017-07-19T01:22:17.176Z,20.40
2017-07-19T01:24:52.761Z,20.30
2017-07-19T01:27:27.683Z,20.50
2017-07-19T01:30:02.630Z,20.50
2017-07-19T01:32:38.355Z,20.40
2017-07-19T01:35:14.091Z,20.30
2017-07-19T01:37:49.005Z,20.30
2017-07-19T01:40:23.862Z,20.50
2017-07-19T01:42:58.739Z,20.40
2017-07-19T01:45:33.779Z,20.20
2017-07-19T01:48:08.676Z,20.40
2017-07-19T01:50:43.663Z,20.40
2017-07-19T01:53:18.596Z,20.40
2017-07-19T01:55:53.536Z,20.20
2017-07-19T01:58:29.220Z,20.30
2017-07-19T02:01:04.050Z,20.20
2017-07-19T02:03:38.835Z,20.10
2017-07-19T02:06:13.819Z,20.10
2017-07-19T02:08:48.723Z,20.20
2017-07-19T02:11:23.548Z,20.30
2017-07-19T02:13:58.335Z,20.30
2017-07-19T02:16:33.250Z,20.30
2017-07-19T02:19:08.160Z,20.20
2017-07-19T02:21:43.923Z,20.20
2017-07-19T02:24:19.518Z,20.00
2017-07-19T02:26:54.499Z,19.80
2017-07-19T02:29:29.371Z,19.50
2017-07-19T02:32:08.367Z,19.60
2017-07-19T02:34:43.293Z,19.70
2017-07-19T02:37:18.180Z,19.70
2017-07-19T02:39:53.177Z,19.70
2017-07-19T02:42:28.112Z,19.60
2017-07-19T02:45:03.037Z,19.40
2017-07-19T02:47:37.966Z,19.40
2017-07-19T02:50:12.979Z,19.40
2017-07-19T02:52:47.926Z,19.40
2017-07-19T02:55:22.889Z,19.40
2017-07-19T02:57:57.852Z,19.20
2017-07-19T03:00:32.784Z,19.30
2017-07-19T03:03:08.543Z,19.30
2017-07-19T03:05:43.447Z,19.20
2017-07-19T03:08:18.288Z,19.30
2017-07-19T03:10:53.213Z,19.40
2017-07-19T03:13:28.082Z,19.10
2017-07-19T03:16:02.947Z,19.20
2017-07-19T03:18:37.763Z,19.10
2017-07-19T03:21:17.173Z,19.20
2017-07-19T03:23:52.206Z,19.00
2017-07-19T03:26:27.112Z,19.10
2017-07-19T03:29:02.042Z,19.10
2017-07-19T03:31:36.808Z,19.00
2017-07-19T03:34:11.821Z,18.90
2017-07-19T03:36:48.335Z,18.90
2017-07-19T03:39:23.236Z,18.90
2017-07-19T03:41:58.195Z,18.90
2017-07-19T03:44:33.204Z,18.90
2017-07-19T03:47:07.991Z,18.90
2017-07-19T03:49:42.878Z,18.80
2017-07-19T03:52:17.807Z,18.80
2017-07-19T03:54:52.612Z,18.80
2017-07-19T03:57:27.519Z,18.60
2017-07-19T04:00:02.367Z,18.60
2017-07-19T04:02:37.392Z,18.70
2017-07-19T04:05:29.467Z,18.70
2017-07-19T04:08:04.256Z,18.80
2017-07-19T04:10:39.219Z,18.80
2017-07-19T04:13:14.128Z,18.80
2017-07-19T04:15:49.050Z,18.70
2017-07-19T04:18:24.014Z,18.50
2017-07-19T04:20:58.782Z,18.40
2017-07-19T04:23:41.603Z,18.60
2017-07-19T04:26:17.299Z,18.70
2017-07-19T04:28:52.069Z,18.70
2017-07-19T04:31:26.907Z,18.80
2017-07-19T04:34:01.874Z,18.90
2017-07-19T04:36:36.739Z,19.10
2017-07-19T04:39:11.621Z,19.20
2017-07-19T04:41:46.523Z,19.30
2017-07-19T04:44:21.420Z,19.20
2017-07-19T04:46:56.311Z,19.40
2017-07-19T04:49:31.227Z,19.60
2017-07-19T04:52:06.066Z,19.60
2017-07-19T04:54:40.990Z,19.60
2017-07-19T04:57:15.955Z,19.40
2017-07-19T04:59:51.588Z,19.50
2017-07-19T05:02:26.719Z,19.60
2017-07-19T05:05:05.789Z,19.40
2017-07-19T05:07:40.595Z,19.70
2017-07-19T05:10:15.499Z,19.80
2017-07-19T05:12:50.338Z,19.60
2017-07-19T05:15:25.137Z,19.80
2017-07-19T05:17:59.924Z,20.10
2017-07-19T05:20:35.024Z,20.10
2017-07-19T05:23:09.892Z,20.00
2017-07-19T05:25:44.833Z,20.20
2017-07-19T05:28:19.661Z,20.40
2017-07-19T05:30:54.423Z,20.60
2017-07-19T05:33:30.046Z,20.60
2017-07-19T05:36:05.040Z,20.80
2017-07-19T05:38:39.867Z,20.90
2017-07-19T05:41:14.672Z,20.80
2017-07-19T05:43:49.472Z,21.10
2017-07-19T05:46:24.383Z,21.20
2017-07-19T05:48:59.336Z,20.10
2017-07-19T05:51:34.097Z,21.40
2017-07-19T05:54:08.896Z,21.70
2017-07-19T05:56:43.701Z,21.60
2017-07-19T05:59:18.611Z,21.70
2017-07-19T06:01:53.496Z,22.10
2017-07-19T06:04:28.411Z,22.20
2017-07-19T06:07:03.228Z,22.60
2017-07-19T06:09:38.026Z,22.90
2017-07-19T06:12:13.784Z,23.10
2017-07-19T06:14:49.542Z,23.50
2017-07-19T06:17:24.500Z,23.70
2017-07-19T06:19:59.491Z,24.00
2017-07-19T06:22:34.420Z,24.30
2017-07-19T06:25:09.399Z,24.60
2017-07-19T06:27:44.367Z,24.60
2017-07-19T06:30:19.293Z,24.90
2017-07-19T06:32:54.971Z,25.20
2017-07-19T06:35:29.900Z,25.70
2017-07-19T06:38:04.708Z,26.00
2017-07-19T06:40:40.400Z,26.30
2017-07-19T06:43:15.184Z,26.20
2017-07-19T06:45:50.202Z,26.50
2017-07-19T06:48:24.980Z,26.40
2017-07-19T06:50:59.798Z,26.40
2017-07-19T06:53:34.734Z,26.30
2017-07-19T06:56:09.704Z,26.70
2017-07-19T06:58:44.699Z,27.10
2017-07-19T07:01:19.682Z,27.30
2017-07-19T07:03:54.606Z,27.70
2017-07-19T07:06:29.441Z,27.80
2017-07-19T07:09:04.380Z,28.00
2017-07-19T07:11:39.189Z,28.00
2017-07-19T07:14:14.186Z,28.10
2017-07-19T07:16:49.023Z,28.10
2017-07-19T07:19:23.875Z,27.60
2017-07-19T07:21:58.694Z,27.40
2017-07-19T07:24:33.620Z,28.00
2017-07-19T07:27:08.416Z,28.10
2017-07-19T07:29:43.431Z,28.10
2017-07-19T07:32:19.065Z,28.40
2017-07-19T07:34:53.852Z,28.50
2017-07-19T07:37:29.418Z,28.50
2017-07-19T07:40:04.332Z,28.90
2017-07-19T07:42:39.371Z,29.10
2017-07-19T07:45:14.399Z,29.30
2017-07-19T07:47:49.235Z,29.50
2017-07-19T07:50:24.164Z,29.40
2017-07-19T07:52:59.011Z,29.30
2017-07-19T07:55:33.855Z,29.40
2017-07-19T07:58:08.670Z,29.50
2017-07-19T08:00:43.455Z,29.50
2017-07-19T08:03:18.316Z,29.60
2017-07-19T08:05:53.114Z,29.70
2017-07-19T08:08:28.002Z,29.90
2017-07-19T08:11:02.759Z,29.80
2017-07-19T08:13:37.691Z,30.20
2017-07-19T08:16:12.516Z,30.30
2017-07-19T08:18:47.299Z,30.40
2017-07-19T08:21:22.135Z,30.40
2017-07-19T08:23:57.090Z,30.50
2017-07-19T08:26:31.892Z,30.30
2017-07-19T08:29:06.890Z,30.60
2017-07-19T08:31:41.851Z,30.70
2017-07-19T08:34:16.819Z,31.00
2017-07-19T08:36:51.797Z,31.00
2017-07-19T08:39:26.578Z,31.20
2017-07-19T08:42:01.411Z,31.40
2017-07-19T08:44:36.327Z,31.50
2017-07-19T08:47:11.142Z,31.10
2017-07-19T08:49:45.999Z,31.60
2017-07-19T08:52:21.701Z,31.50
2017-07-19T08:54:56.656Z,31.50
2017-07-19T08:57:31.617Z,31.60
2017-07-19T09:00:06.474Z,32.00
2017-07-19T09:02:41.379Z,32.20
2017-07-19T09:05:16.342Z,32.30
2017-07-19T09:07:51.301Z,32.10
2017-07-19T09:10:26.251Z,32.40
2017-07-19T09:13:01.232Z,33.00
2017-07-19T09:15:36.152Z,33.30
2017-07-19T09:18:10.966Z,33.60
2017-07-19T09:20:45.819Z,34.00
2017-07-19T09:23:20.735Z,34.40
2017-07-19T09:25:55.644Z,34.70
2017-07-19T09:28:30.590Z,34.50
2017-07-19T09:31:05.400Z,34.40
2017-07-19T09:33:40.194Z,34.50
2017-07-19T09:36:15.080Z,34.10
2017-07-19T09:38:49.996Z,34.40
2017-07-19T09:41:24.965Z,34.50
2017-07-19T09:43:59.976Z,34.30
2017-07-19T09:46:34.947Z,34.40
2017-07-19T09:49:09.887Z,34.70
2017-07-19T09:51:44.695Z,35.20
2017-07-19T09:54:19.571Z,35.10
2017-07-19T09:56:54.381Z,35.10
2017-07-19T09:59:29.212Z,35.10
2017-07-19T10:02:04.757Z,35.20
2017-07-19T10:04:39.732Z,35.40
2017-07-19T10:07:14.692Z,35.10
2017-07-19T10:09:49.487Z,34.90
2017-07-19T10:12:24.488Z,35.10
2017-07-19T10:14:59.472Z,35.10
2017-07-19T10:17:34.305Z,35.40
2017-07-19T10:20:09.183Z,36.00
2017-07-19T10:22:44.149Z,36.00
2017-07-19T10:25:19.054Z,36.40
2017-07-19T10:27:54.691Z,36.60
2017-07-19T10:30:29.664Z,36.50
2017-07-19T10:33:04.568Z,36.70
2017-07-19T10:35:39.534Z,36.20
2017-07-19T10:38:14.532Z,36.00
2017-07-19T10:40:49.431Z,36.40
2017-07-19T10:43:24.273Z,36.90
2017-07-19T10:45:59.566Z,37.20
2017-07-19T10:48:34.572Z,37.00
2017-07-19T10:51:09.655Z,37.20
2017-07-19T10:53:44.612Z,36.80
2017-07-19T10:56:19.539Z,36.80
2017-07-19T10:58:55.531Z,36.70
2017-07-19T11:01:30.522Z,36.50
2017-07-19T11:04:05.525Z,37.30
2017-07-19T11:06:41.289Z,37.70
2017-07-19T11:09:16.075Z,38.00
2017-07-19T11:11:51.065Z,38.30
2017-07-19T11:14:26.050Z,37.70
2017-07-19T11:17:01.048Z,37.70
2017-07-19T11:19:35.975Z,37.20
2017-07-19T11:22:10.908Z,37.70
2017-07-19T11:24:45.788Z,37.90
2017-07-19T11:27:20.859Z,38.20
2017-07-19T11:29:55.807Z,38.30
2017-07-19T11:32:30.808Z,38.50
2017-07-19T11:35:06.881Z,38.60
2017-07-19T11:37:41.719Z,38.10
2017-07-19T11:40:16.648Z,38.30
2017-07-19T11:42:51.576Z,37.80
2017-07-19T11:45:26.550Z,38.00
2017-07-19T11:48:01.481Z,38.40
2017-07-19T11:50:36.312Z,38.80
2017-07-19T11:53:11.256Z,39.30
2017-07-19T11:55:46.968Z,39.80
2017-07-19T11:58:22.539Z,40.30
2017-07-19T12:00:57.463Z,40.40
2017-07-19T12:03:32.432Z,40.50
2017-07-19T12:06:07.350Z,40.90
2017-07-19T12:08:43.189Z,41.60
2017-07-19T12:11:19.059Z,41.70
2017-07-19T12:13:53.990Z,41.80
2017-07-19T12:16:29.035Z,41.90
2017-07-19T12:19:03.857Z,41.90
2017-07-19T12:21:38.758Z,41.50
2017-07-19T12:24:13.748Z,41.50
2017-07-19T12:26:48.699Z,41.90
2017-07-19T12:29:23.704Z,42.10
2017-07-19T12:31:58.612Z,41.80
2017-07-19T12:34:33.647Z,41.90
2017-07-19T12:37:08.339Z,42.30
2017-07-19T12:39:43.936Z,42.90
2017-07-19T12:42:19.879Z,43.20
2017-07-19T12:44:55.631Z,43.60
2017-07-19T12:47:30.644Z,44.00
2017-07-19T12:50:05.588Z,44.10
2017-07-19T12:52:41.324Z,43.00
2017-07-19T12:55:16.307Z,44.30
2017-07-19T12:57:51.288Z,45.20
2017-07-19T13:00:26.127Z,45.90
2017-07-19T13:03:01.094Z,45.80
2017-07-19T13:05:36.054Z,45.60
2017-07-19T13:08:11.651Z,44.70
2017-07-19T13:10:49.791Z,45.40
2017-07-19T13:13:24.594Z,44.30
2017-07-19T13:15:59.482Z,44.90
2017-07-19T13:18:34.368Z,45.70
2017-07-19T13:21:09.315Z,45.70
2017-07-19T13:23:44.195Z,45.40
2017-07-19T13:26:19.204Z,45.60
2017-07-19T13:28:54.792Z,46.30
2017-07-19T13:31:29.622Z,45.80
2017-07-19T13:34:04.552Z,45.00
2017-07-19T13:36:39.511Z,45.30
2017-07-19T13:39:14.344Z,46.00
2017-07-19T13:41:49.252Z,45.20
2017-07-19T13:44:24.257Z,45.70
2017-07-19T13:47:01.172Z,44.70
2017-07-19T13:49:36.159Z,45.30
2017-07-19T13:52:11.134Z,45.30
2017-07-19T13:54:46.358Z,45.40
2017-07-19T13:57:22.513Z,45.70
2017-07-19T13:59:57.809Z,45.40
2017-07-19T14:02:32.663Z,45.00
2017-07-19T14:05:07.609Z,45.10
2017-07-19T14:07:45.257Z,45.30
2017-07-19T14:10:26.592Z,46.10
2017-07-19T14:13:01.543Z,45.90
2017-07-19T14:15:37.271Z,45.50
2017-07-19T14:18:12.177Z,46.10
2017-07-19T14:20:47.071Z,46.50
2017-07-19T14:23:23.016Z,46.20
2017-07-19T14:25:59.907Z,46.60
2017-07-19T14:28:35.275Z,46.30
2017-07-19T14:31:14.145Z,46.50
2017-07-19T14:33:49.055Z,46.90
2017-07-19T14:36:24.013Z,46.40
2017-07-19T14:38:59.039Z,46.40
2017-07-19T14:41:33.945Z,45.90
2017-07-19T14:44:09.611Z,46.00
2017-07-19T14:46:44.441Z,45.00
2017-07-19T14:49:19.483Z,45.40
2017-07-19T14:51:54.315Z,44.80
2017-07-19T14:54:29.875Z,44.30
2017-07-19T14:57:04.874Z,43.00
2017-07-19T14:59:39.707Z,43.60
2017-07-19T15:02:14.659Z,44.40
2017-07-19T15:04:49.631Z,44.90
2017-07-19T15:07:24.403Z,44.00
2017-07-19T15:09:59.374Z,43.70
2017-07-19T15:12:34.173Z,42.90
2017-07-19T15:15:09.127Z,42.00
2017-07-19T15:17:43.968Z,41.80
2017-07-19T15:20:18.868Z,41.40
2017-07-19T15:22:53.828Z,41.80
2017-07-19T15:25:28.751Z,41.70
2017-07-19T15:28:03.757Z,41.70
2017-07-19T15:30:38.748Z,42.00
2017-07-19T15:33:13.722Z,41.90
2017-07-19T15:35:51.983Z,41.40
2017-07-19T15:38:26.980Z,39.90
2017-07-19T15:41:02.889Z,40.50
2017-07-19T15:43:37.794Z,40.90
2017-07-19T15:46:12.811Z,40.70
2017-07-19T15:48:47.627Z,40.10
2017-07-19T15:51:22.654Z,39.80
2017-07-19T15:53:59.446Z,39.00
2017-07-19T15:56:36.443Z,38.30
2017-07-19T15:59:11.352Z,37.90
2017-07-19T16:01:46.900Z,37.60
2017-07-19T16:04:22.028Z,36.90
2017-07-19T16:06:56.890Z,37.00
2017-07-19T16:09:31.809Z,37.80
2017-07-19T16:12:06.602Z,38.90
2017-07-19T16:14:43.304Z,39.70
2017-07-19T16:17:18.145Z,40.30
2017-07-19T16:19:53.055Z,40.90
2017-07-19T16:22:28.152Z,41.40
2017-07-19T16:25:03.124Z,41.50
2017-07-19T16:27:37.926Z,41.60
2017-07-19T16:30:13.017Z,41.70
2017-07-19T16:32:48.079Z,41.60
2017-07-19T16:35:23.059Z,40.80
2017-07-19T16:37:57.997Z,40.00
2017-07-19T16:40:42.815Z,38.70
2017-07-19T16:43:17.776Z,37.60
2017-07-19T16:45:52.733Z,36.70
2017-07-19T16:48:27.699Z,36.10
2017-07-19T16:51:02.665Z,35.50
2017-07-19T16:53:37.727Z,35.20
2017-07-19T16:56:13.257Z,34.70
2017-07-19T16:58:49.370Z,34.00
2017-07-19T17:01:24.273Z,33.80
2017-07-19T17:04:00.011Z,33.70
2017-07-19T17:06:34.822Z,33.30
2017-07-19T17:09:09.628Z,32.60
2017-07-19T17:11:47.913Z,32.20
2017-07-19T17:14:23.085Z,32.10
2017-07-19T17:16:58.331Z,31.60
2017-07-19T17:19:33.739Z,31.30
2017-07-19T17:22:08.777Z,31.10
2017-07-19T17:24:43.831Z,30.40
2017-07-19T17:27:19.309Z,30.50
2017-07-19T17:29:54.678Z,30.50
2017-07-19T17:32:40.691Z,30.60
2017-07-19T17:35:20.215Z,30.60
2017-07-19T17:37:55.752Z,30.70
2017-07-19T17:40:31.360Z,30.60
2017-07-19T17:43:06.684Z,30.70
2017-07-19T17:45:42.748Z,30.60
2017-07-19T17:48:18.175Z,30.70
2017-07-19T17:50:53.852Z,30.80
2017-07-19T17:53:30.367Z,30.90
2017-07-19T17:56:05.839Z,30.80
2017-07-19T17:58:41.155Z,31.00
2017-07-19T18:01:16.337Z,30.90
2017-07-19T18:03:51.727Z,30.60
2017-07-19T18:06:27.103Z,30.60
2017-07-19T18:09:02.182Z,30.10
2017-07-19T18:11:40.994Z,30.10
2017-07-19T18:14:19.820Z,29.80
2017-07-19T18:16:55.261Z,29.80
2017-07-19T18:19:30.404Z,29.70
2017-07-19T18:22:06.216Z,29.60
2017-07-19T18:24:42.175Z,29.50
2017-07-19T18:27:18.921Z,29.40
2017-07-19T18:29:55.891Z,29.60
2017-07-19T18:32:31.004Z,29.50
2017-07-19T18:35:06.680Z,29.30
2017-07-19T18:37:41.748Z,29.20
2017-07-19T18:40:17.005Z,29.10
2017-07-19T18:42:51.987Z,28.60
2017-07-19T18:45:27.070Z,28.40
2017-07-19T18:48:02.398Z,28.20
2017-07-19T18:50:37.974Z,28.30
2017-07-19T18:53:17.377Z,28.20
2017-07-19T18:55:52.381Z,27.80
2017-07-19T18:58:27.785Z,27.80
2017-07-19T19:01:04.965Z,27.70
2017-07-19T19:03:40.212Z,27.60
2017-07-19T19:06:15.330Z,27.30
2017-07-19T19:08:51.683Z,27.40
2017-07-19T19:11:27.059Z,27.40
2017-07-19T19:14:02.028Z,27.40
2017-07-19T19:16:37.004Z,27.40
2017-07-19T19:19:12.724Z,27.30
2017-07-19T19:21:47.634Z,27.30
2017-07-19T19:24:23.374Z,27.20
2017-07-19T19:26:58.283Z,27.00
2017-07-19T19:29:33.252Z,27.10
2017-07-19T19:32:08.023Z,26.40
2017-07-19T19:34:43.001Z,26.60
2017-07-19T19:37:23.494Z,26.70
2017-07-19T19:39:59.227Z,26.50
2017-07-19T19:42:34.171Z,26.30
2017-07-19T19:45:09.364Z,26.30
2017-07-19T19:47:44.261Z,26.50
2017-07-19T19:50:19.123Z,26.30
2017-07-19T19:52:54.088Z,26.30
2017-07-19T19:55:29.538Z,26.10
2017-07-19T19:58:05.382Z,26.20
2017-07-19T20:00:40.288Z,26.00
2017-07-19T20:03:15.268Z,26.10
2017-07-19T20:05:50.119Z,26.50
2017-07-19T20:08:25.047Z,26.40
2017-07-19T20:10:59.983Z,26.50
2017-07-19T20:13:34.903Z,26.60
2017-07-19T20:16:09.803Z,26.50
2017-07-19T20:18:44.703Z,26.70
2017-07-19T20:21:24.944Z,26.50
2017-07-19T20:23:59.775Z,26.30
2017-07-19T20:26:35.447Z,26.10
2017-07-19T20:29:10.356Z,25.80
2017-07-19T20:31:47.177Z,25.50
2017-07-19T20:34:21.955Z,25.00
2017-07-19T20:36:58.893Z,23.40
2017-07-19T20:39:33.826Z,23.00
2017-07-19T20:42:08.926Z,22.30
2017-07-19T20:44:43.704Z,21.70
2017-07-19T20:47:18.527Z,21.70
2017-07-19T20:49:53.311Z,19.90
2017-07-19T20:52:28.415Z,21.00
2017-07-19T20:55:03.333Z,20.90
2017-07-19T20:57:38.990Z,20.80
2017-07-19T21:00:13.752Z,21.00
2017-07-19T21:02:48.949Z,20.80
2017-07-19T21:05:23.865Z,20.60
2017-07-19T21:07:58.880Z,20.40
2017-07-19T21:10:33.808Z,20.30
2017-07-19T21:13:08.785Z,20.00
2017-07-19T21:15:44.591Z,19.90
2017-07-19T21:18:19.528Z,19.70
2017-07-19T21:20:54.543Z,19.70
2017-07-19T21:23:29.526Z,19.60
2017-07-19T21:26:04.398Z,19.70
2017-07-19T21:28:40.310Z,20.00
2017-07-19T21:31:15.101Z,19.90
2017-07-19T21:33:50.030Z,19.70
2017-07-19T21:36:25.729Z,19.60
2017-07-19T21:39:00.523Z,19.50
2017-07-19T21:41:35.925Z,19.50
2017-07-19T21:44:12.437Z,19.40
2017-07-19T21:46:47.408Z,19.50
2017-07-19T21:49:22.395Z,19.20
2017-07-19T21:51:57.444Z,19.30
2017-07-19T21:54:32.246Z,19.20
2017-07-19T21:57:07.229Z,19.20
2017-07-19T21:59:42.841Z,19.10
2017-07-19T22:02:17.868Z,19.00
2017-07-19T22:04:53.512Z,18.90
2017-07-19T22:07:28.443Z,18.90
2017-07-19T22:10:05.269Z,18.90
2017-07-19T22:12:41.163Z,19.00
2017-07-19T22:15:16.087Z,18.90
2017-07-19T22:17:54.809Z,18.90
2017-07-19T22:20:29.791Z,19.00
2017-07-19T22:23:04.762Z,18.90
2017-07-19T22:25:39.735Z,19.20
2017-07-19T22:28:14.542Z,19.30
2017-07-19T22:30:50.090Z,19.50
2017-07-19T22:33:25.082Z,19.60
2017-07-19T22:36:00.050Z,19.60
2017-07-19T22:38:45.324Z,19.80
2017-07-19T22:41:20.255Z,20.00
2017-07-19T22:43:55.763Z,20.00
2017-07-19T22:46:30.735Z,20.00
2017-07-19T22:49:05.569Z,19.90
2017-07-19T22:51:40.535Z,20.00
2017-07-19T22:54:15.501Z,20.10
2017-07-19T22:56:50.335Z,20.00
2017-07-19T22:59:26.009Z,20.00
2017-07-19T23:02:00.968Z,19.80
2017-07-19T23:04:35.878Z,19.80
2017-07-19T23:07:10.763Z,19.90
2017-07-19T23:09:46.448Z,19.80
2017-07-19T23:12:21.391Z,20.00
2017-07-19T23:14:56.323Z,19.90
2017-07-19T23:17:31.154Z,20.00
2017-07-19T23:20:05.958Z,20.00
2017-07-19T23:22:40.811Z,20.10
2017-07-19T23:25:15.714Z,20.10
2017-07-19T23:27:50.676Z,20.10
2017-07-19T23:30:25.505Z,20.20
2017-07-19T23:33:00.371Z,20.20
2017-07-19T23:35:35.324Z,20.10
2017-07-19T23:38:10.300Z,20.00
2017-07-19T23:40:45.200Z,20.00
2017-07-19T23:43:20.164Z,20.00
2017-07-19T23:45:55.068Z,20.10
2017-07-19T23:48:30.010Z,20.20
2017-07-19T23:51:05.572Z,20.00
2017-07-19T23:53:40.527Z,19.90
2017-07-19T23:56:15.509Z,20.00
2017-07-19T23:58:50.463Z,19.80
